Time;durP1;ratioP1;P1;durP2;ratioP2;P2;SDS_P1;SDS_P2;PMS_P1;PMS_P2;Temp;Humidity;BMP_temperature;BMP_pressure;BME280_temperature;BME280_humidity;BME280_pressure;Samples;Min_cycle;Max_cycle;Signal;HPM_P1;HPM_P2
2021/11/27 00:00:31;;;;;;;1.40;1.30;;;6.20;99.90;;;;;;2071868;28;20022;-71
2021/11/27 00:01:34;;;;;;;1.25;1.15;;;6.30;99.90;;;;;;2071755;28;20196;-71
2021/11/27 00:02:34;;;;;;;1.50;1.40;;;6.30;99.90;;;;;;2071966;28;20036;-71
2021/11/27 00:03:35;;;;;;;1.33;1.23;;;6.30;99.90;;;;;;2080077;28;20470;-70
2021/11/27 00:04:35;;;;;;;1.40;1.30;;;6.30;99.90;;;;;;2078102;28;20033;-70
2021/11/27 00:05:38;;;;;;;1.35;1.10;;;6.20;99.90;;;;;;2080109;28;20037;-70
2021/11/27 00:06:39;;;;;;;1.42;1.20;;;6.20;99.90;;;;;;2080989;28;20020;-71
2021/11/27 00:07:40;;;;;;;1.30;1.20;;;6.30;99.90;;;;;;2079338;28;20056;-70
2021/11/27 00:08:40;;;;;;;1.45;1.13;;;6.20;99.90;;;;;;2079915;28;20053;-70
2021/11/27 00:09:41;;;;;;;1.58;1.02;;;6.30;99.90;;;;;;2079293;28;20088;-71
2021/11/27 00:10:44;;;;;;;1.17;1.15;;;6.30;99.90;;;;;;2075674;28;20030;-71
2021/11/27 00:11:44;;;;;;;1.88;1.50;;;6.20;99.90;;;;;;2073135;28;20509;-71
2021/11/27 00:12:46;;;;;;;1.40;1.30;;;6.20;99.90;;;;;;2080543;28;20023;-71
2021/11/27 00:13:47;;;;;;;1.10;1.05;;;6.30;99.90;;;;;;2076423;28;20045;-70
2021/11/27 00:14:48;;;;;;;1.20;1.10;;;6.30;99.90;;;;;;2072947;28;20104;-70
2021/11/27 00:15:51;;;;;;;1.45;1.27;;;6.30;99.90;;;;;;2080079;28;20029;-70
2021/11/27 00:16:52;;;;;;;1.30;1.20;;;6.30;99.90;;;;;;2080334;28;20040;-71
2021/11/27 00:17:53;;;;;;;1.40;1.30;;;6.30;99.90;;;;;;2080384;28;20053;-70
2021/11/27 00:18:54;;;;;;;1.23;1.10;;;6.30;99.90;;;;;;2077253;28;20022;-70
2021/11/27 00:19:55;;;;;;;1.15;1.05;;;6.30;99.90;;;;;;2079416;28;20548;-70
2021/11/27 00:21:02;;;;;;;1.40;1.30;;;6.30;99.90;;;;;;2072250;28;20115;-70
2021/11/27 00:22:03;;;;;;;1.10;1.10;;;6.30;99.90;;;;;;2072475;28;20524;-70
2021/11/27 00:23:05;;;;;;;1.17;1.10;;;6.30;99.90;;;;;;2072470;28;20028;-70
2021/11/27 00:24:06;;;;;;;1.40;1.30;;;6.30;99.90;;;;;;2075882;28;20076;-70
2021/11/27 00:25:09;;;;;;;1.30;1.20;;;6.30;99.90;;;;;;2080507;28;20462;-70
2021/11/27 00:26:12;;;;;;;1.30;1.20;;;6.30;99.90;;;;;;2079597;28;20071;-71
2021/11/27 00:27:13;;;;;;;1.02;0.90;;;6.30;99.90;;;;;;2078598;28;20383;-71
2021/11/27 00:28:14;;;;;;;2.13;1.23;;;6.30;99.90;;;;;;2079726;28;20100;-70
2021/11/27 00:29:14;;;;;;;1.20;1.10;;;6.30;99.90;;;;;;2079552;28;20025;-70
2021/11/27 00:30:19;;;;;;;1.20;1.10;;;6.30;99.90;;;;;;2080166;28;20023;-70
2021/11/27 00:31:23;;;;;;;1.08;1.00;;;6.30;99.90;;;;;;2079272;28;20030;-70
2021/11/27 00:32:24;;;;;;;1.80;1.63;;;6.30;99.90;;;;;;2079750;28;20113;-70
2021/11/27 00:33:25;;;;;;;1.10;1.00;;;6.30;99.90;;;;;;2080317;28;20026;-70
2021/11/27 00:34:26;;;;;;;1.50;1.27;;;6.30;99.90;;;;;;2079828;28;20580;-70
2021/11/27 00:35:27;;;;;;;1.25;1.15;;;6.30;99.90;;;;;;2079330;28;20025;-70
2021/11/27 00:36:27;;;;;;;1.30;1.20;;;6.30;99.90;;;;;;2079576;28;20557;-70
2021/11/27 00:37:28;;;;;;;1.10;1.10;;;6.30;99.90;;;;;;2080291;28;20026;-70
2021/11/27 00:38:29;;;;;;;1.20;1.20;;;6.30;99.90;;;;;;2073597;28;20026;-70
2021/11/27 00:39:30;;;;;;;1.05;1.05;;;6.30;99.90;;;;;;2071851;28;20093;-70
2021/11/27 00:40:32;;;;;;;1.75;1.33;;;6.30;99.90;;;;;;2071368;28;20037;-70
2021/11/27 00:41:33;;;;;;;1.60;1.27;;;6.30;99.90;;;;;;2071507;28;20025;-70
2021/11/27 00:42:34;;;;;;;1.45;1.05;;;6.30;99.90;;;;;;2072567;28;20030;-70
2021/11/27 00:43:35;;;;;;;2.13;1.17;;;6.40;99.90;;;;;;2080089;28;20474;-70
2021/11/27 00:44:36;;;;;;;1.30;1.20;;;6.40;99.90;;;;;;2076103;28;20022;-70
2021/11/27 00:45:38;;;;;;;1.00;1.00;;;6.40;99.90;;;;;;2070119;28;20026;-70
2021/11/27 00:46:38;;;;;;;1.38;1.27;;;6.40;99.90;;;;;;2072199;28;20468;-70
2021/11/27 00:47:50;;;;;;;1.17;1.17;;;6.40;99.90;;;;;;2073864;28;20022;-70
2021/11/27 00:48:51;;;;;;;1.42;1.33;;;6.40;99.90;;;;;;2080541;28;20028;-70
2021/11/27 00:49:53;;;;;;;1.58;1.48;;;6.40;99.90;;;;;;2079859;28;20030;-70
2021/11/27 00:50:57;;;;;;;1.05;1.00;;;6.40;99.90;;;;;;2080088;28;20036;-70
2021/11/27 00:51:59;;;;;;;0.95;0.95;;;6.40;99.90;;;;;;2080305;28;20064;-70
2021/11/27 00:53:03;;;;;;;1.13;1.10;;;6.40;99.90;;;;;;2079691;28;20044;-70
2021/11/27 00:54:04;;;;;;;1.30;1.20;;;6.40;99.90;;;;;;2080150;28;20363;-70
2021/11/27 00:55:06;;;;;;;1.10;1.10;;;6.40;99.90;;;;;;2080415;28;20044;-70
2021/11/27 00:56:07;;;;;;;1.40;1.30;;;6.40;99.90;;;;;;2079835;28;20040;-70
2021/11/27 00:57:08;;;;;;;1.38;1.27;;;6.40;99.90;;;;;;2080359;28;20025;-70
2021/11/27 00:58:09;;;;;;;1.58;1.48;;;6.40;99.90;;;;;;2079826;28;20036;-70
2021/11/27 00:59:10;;;;;;;1.30;1.20;;;6.40;99.90;;;;;;2077718;28;20022;-70
2021/11/27 01:00:15;;;;;;;1.10;1.10;;;6.40;99.90;;;;;;2070930;28;20022;-70
2021/11/27 01:01:23;;;;;;;1.42;1.33;;;6.40;99.90;;;;;;2063600;28;20030;-70
2021/11/27 01:02:24;;;;;;;1.35;1.25;;;6.40;99.90;;;;;;2071400;28;20022;-70
2021/11/27 01:03:28;;;;;;;1.40;1.30;;;6.40;99.90;;;;;;2071987;28;20018;-70
2021/11/27 01:04:29;;;;;;;1.63;1.52;;;6.40;99.90;;;;;;2071514;28;20014;-70
2021/11/27 01:05:31;;;;;;;1.20;1.20;;;6.40;99.90;;;;;;2074334;28;20469;-70
2021/11/27 01:06:32;;;;;;;1.35;1.25;;;6.40;99.90;;;;;;2071145;28;20444;-70
2021/11/27 01:07:33;;;;;;;1.40;1.30;;;6.40;99.90;;;;;;2072188;28;20062;-70
2021/11/27 01:08:35;;;;;;;1.63;1.23;;;6.40;99.90;;;;;;2071841;28;20034;-70
2021/11/27 01:09:36;;;;;;;1.33;1.23;;;6.40;99.90;;;;;;2071672;28;20025;-70
2021/11/27 01:10:51;;;;;;;1.50;1.40;;;6.40;99.90;;;;;;2071914;28;20109;-70
2021/11/27 01:11:53;;;;;;;0.88;0.88;;;6.40;99.90;;;;;;2078606;28;20032;-70
2021/11/27 01:12:55;;;;;;;1.00;0.90;;;6.40;99.90;;;;;;2080041;28;20112;-70
2021/11/27 01:14:02;;;;;;;1.20;1.10;;;6.40;99.90;;;;;;2080182;28;20373;-70
2021/11/27 01:15:04;;;;;;;1.25;1.13;;;6.40;99.90;;;;;;2080252;28;20553;-70
2021/11/27 01:16:06;;;;;;;1.48;1.38;;;6.40;99.90;;;;;;2079391;28;20398;-70
2021/11/27 01:17:08;;;;;;;1.50;1.30;;;6.40;99.90;;;;;;2080246;28;20168;-70
2021/11/27 01:18:09;;;;;;;1.38;1.27;;;6.40;99.90;;;;;;2079818;28;20022;-70
2021/11/27 01:19:10;;;;;;;1.48;1.38;;;6.40;99.90;;;;;;2080459;28;20017;-70
2021/11/27 01:20:13;;;;;;;1.02;1.00;;;6.40;99.90;;;;;;2079796;28;20017;-70
2021/11/27 01:21:19;;;;;;;0.93;0.93;;;6.40;99.90;;;;;;2079583;28;20025;-70
2021/11/27 01:22:23;;;;;;;1.17;1.00;;;6.40;99.90;;;;;;2079425;28;20029;-70
2021/11/27 01:23:26;;;;;;;0.98;0.90;;;6.40;99.90;;;;;;2080242;28;20041;-70
2021/11/27 01:24:27;;;;;;;1.35;1.25;;;6.40;99.90;;;;;;2079670;28;20049;-70
2021/11/27 01:25:28;;;;;;;1.50;1.40;;;6.40;99.90;;;;;;2079972;28;20021;-71
2021/11/27 01:26:31;;;;;;;1.00;1.00;;;6.40;99.90;;;;;;2078427;28;20792;-70
2021/11/27 01:27:32;;;;;;;1.40;1.30;;;6.40;99.90;;;;;;2074941;28;20033;-70
2021/11/27 01:28:32;;;;;;;1.30;1.20;;;6.40;99.90;;;;;;2079248;28;20560;-70
2021/11/27 01:29:33;;;;;;;1.40;1.25;;;6.40;99.90;;;;;;2079861;28;20013;-70
2021/11/27 01:30:34;;;;;;;1.65;1.40;;;6.40;99.90;;;;;;2079779;28;20366;-70
2021/11/27 01:31:36;;;;;;;2.05;1.20;;;6.40;99.90;;;;;;2079936;28;20032;-70
2021/11/27 01:32:37;;;;;;;1.40;1.30;;;6.40;99.90;;;;;;2079882;28;20025;-71
2021/11/27 01:33:38;;;;;;;1.10;1.00;;;6.40;99.90;;;;;;2079773;28;20025;-70
2021/11/27 01:34:40;;;;;;;1.10;1.10;;;6.40;99.90;;;;;;2078737;28;20041;-70
2021/11/27 01:35:41;;;;;;;2.75;1.38;;;6.40;99.90;;;;;;2071138;28;20469;-70
2021/11/27 01:36:42;;;;;;;1.08;1.08;;;6.40;99.90;;;;;;2071161;28;20056;-70
2021/11/27 01:37:43;;;;;;;0.75;0.75;;;6.40;99.90;;;;;;2070921;28;20104;-71
2021/11/27 01:38:44;;;;;;;0.95;0.95;;;6.40;99.90;;;;;;2071663;28;20669;-70
2021/11/27 01:39:45;;;;;;;1.90;1.10;;;6.40;99.90;;;;;;2073515;28;20026;-70
2021/11/27 01:40:46;;;;;;;1.08;0.93;;;6.40;99.90;;;;;;2079830;28;20020;-70
2021/11/27 01:41:47;;;;;;;1.13;1.08;;;6.40;99.90;;;;;;2073454;28;20022;-70
2021/11/27 01:42:49;;;;;;;1.30;1.20;;;6.40;99.90;;;;;;2071044;28;20025;-70
2021/11/27 01:43:50;;;;;;;1.10;1.00;;;6.40;99.90;;;;;;2071067;28;20100;-70
2021/11/27 01:44:50;;;;;;;1.33;1.00;;;6.40;99.90;;;;;;2071792;28;20076;-70
2021/11/27 01:45:52;;;;;;;0.82;0.82;;;6.40;99.90;;;;;;2071319;28;20025;-70
2021/11/27 01:46:54;;;;;;;1.10;1.00;;;6.40;99.90;;;;;;2071955;28;20022;-70
2021/11/27 01:48:05;;;;;;;0.90;0.90;;;6.40;99.90;;;;;;2071615;28;20049;-70
2021/11/27 01:49:07;;;;;;;0.90;0.88;;;6.40;99.90;;;;;;2070855;28;20107;-70
2021/11/27 01:50:08;;;;;;;1.00;0.90;;;6.40;99.90;;;;;;2078171;28;20485;-70
2021/11/27 01:51:12;;;;;;;1.05;1.02;;;6.40;99.90;;;;;;2079852;28;20569;-70
2021/11/27 01:52:13;;;;;;;0.90;0.90;;;6.40;99.90;;;;;;2073514;28;20474;-70
2021/11/27 01:53:14;;;;;;;0.75;0.75;;;6.40;99.90;;;;;;2079087;28;20044;-70
2021/11/27 01:54:15;;;;;;;0.95;0.95;;;6.40;99.90;;;;;;2078734;28;20056;-70
2021/11/27 01:55:16;;;;;;;1.90;0.90;;;6.40;99.90;;;;;;2079264;28;20104;-70
2021/11/27 01:56:20;;;;;;;1.10;1.00;;;6.40;99.90;;;;;;2079164;28;20025;-70
2021/11/27 01:57:21;;;;;;;0.95;0.90;;;6.40;99.90;;;;;;2079859;28;20092;-70
2021/11/27 01:58:23;;;;;;;1.17;1.10;;;6.50;99.90;;;;;;2079728;28;20089;-71
2021/11/27 01:59:25;;;;;;;0.80;0.80;;;6.50;99.90;;;;;;2079664;28;20481;-71
2021/11/27 02:00:38;;;;;;;1.15;1.05;;;6.40;99.90;;;;;;2080344;28;20474;-71
2021/11/27 02:01:39;;;;;;;1.05;0.65;;;6.50;99.90;;;;;;2071549;28;20359;-71
2021/11/27 02:02:40;;;;;;;0.90;0.85;;;6.50;99.90;;;;;;2075650;28;20026;-71
2021/11/27 02:03:41;;;;;;;0.80;0.80;;;6.50;99.90;;;;;;2080060;28;20082;-71
2021/11/27 02:04:43;;;;;;;0.70;0.70;;;6.50;99.90;;;;;;2070735;28;20032;-71
2021/11/27 02:05:44;;;;;;;0.70;0.70;;;6.50;99.90;;;;;;2074113;28;20018;-71
2021/11/27 02:06:45;;;;;;;1.02;0.80;;;6.40;99.90;;;;;;2075231;28;20021;-71
2021/11/27 02:07:48;;;;;;;0.90;0.90;;;6.50;99.90;;;;;;2077787;28;20026;-71
2021/11/27 02:08:50;;;;;;;0.93;0.65;;;6.50;99.90;;;;;;2077266;28;20429;-71
2021/11/27 02:09:51;;;;;;;1.08;0.98;;;6.50;99.90;;;;;;2078008;28;20026;-71
2021/11/27 02:10:53;;;;;;;0.63;0.60;;;6.50;99.90;;;;;;2070651;28;20037;-71
2021/11/27 02:11:56;;;;;;;0.70;0.70;;;6.40;99.90;;;;;;2078800;28;20489;-71
2021/11/27 02:12:56;;;;;;;0.70;0.70;;;6.50;99.90;;;;;;2079381;28;20033;-71
2021/11/27 02:13:59;;;;;;;0.80;0.80;;;6.40;99.90;;;;;;2079446;28;20040;-71
2021/11/27 02:14:59;;;;;;;0.80;0.80;;;6.40;99.90;;;;;;2079564;28;20028;-71
2021/11/27 02:16:00;;;;;;;0.73;0.73;;;6.40;99.90;;;;;;2079324;28;20017;-71
2021/11/27 02:17:01;;;;;;;1.02;0.65;;;6.40;99.90;;;;;;2078996;28;20156;-71
2021/11/27 02:18:02;;;;;;;0.70;0.70;;;6.40;99.90;;;;;;2079077;28;20032;-71
2021/11/27 02:19:04;;;;;;;2.40;0.70;;;6.50;99.90;;;;;;2079306;28;20108;-71
2021/11/27 02:20:06;;;;;;;0.80;0.80;;;6.50;99.90;;;;;;2079484;28;20026;-71
2021/11/27 02:21:10;;;;;;;0.75;0.75;;;6.50;99.90;;;;;;2079157;28;20108;-71
2021/11/27 02:22:12;;;;;;;1.85;0.70;;;6.40;99.90;;;;;;2079636;28;20393;-71
2021/11/27 02:23:12;;;;;;;1.38;0.95;;;6.50;99.90;;;;;;2078220;28;20374;-71
2021/11/27 02:24:16;;;;;;;0.45;0.45;;;6.40;99.90;;;;;;2073555;28;20026;-71
2021/11/27 02:25:20;;;;;;;0.60;0.60;;;6.40;99.90;;;;;;2079006;28;20025;-71
2021/11/27 02:26:30;;;;;;;0.70;0.70;;;6.40;99.90;;;;;;2078523;28;20022;-71
2021/11/27 02:27:31;;;;;;;1.63;0.73;;;6.40;99.90;;;;;;2075491;28;20014;-71
2021/11/27 02:28:34;;;;;;;0.75;0.75;;;6.40;99.90;;;;;;2079734;28;20049;-71
2021/11/27 02:29:35;;;;;;;0.70;0.70;;;6.40;99.90;;;;;;2078766;28;20014;-71
2021/11/27 02:30:37;;;;;;;1.58;0.70;;;6.40;99.90;;;;;;2079281;28;20018;-71
2021/11/27 02:31:38;;;;;;;0.80;0.80;;;6.40;99.90;;;;;;2078946;28;20079;-71
2021/11/27 02:32:40;;;;;;;0.52;0.52;;;6.40;99.90;;;;;;2079683;28;20072;-71
2021/11/27 02:33:41;;;;;;;1.10;0.77;;;6.40;99.90;;;;;;2079491;28;20079;-72
2021/11/27 02:34:42;;;;;;;0.95;0.80;;;6.40;99.90;;;;;;2079506;28;20017;-71
2021/11/27 02:35:42;;;;;;;0.82;0.70;;;6.40;99.90;;;;;;2078745;28;20056;-71
2021/11/27 02:36:48;;;;;;;0.68;0.65;;;6.40;99.90;;;;;;2079449;28;20052;-71
2021/11/27 02:37:48;;;;;;;0.70;0.70;;;6.40;99.90;;;;;;2077903;28;20385;-71
2021/11/27 02:38:49;;;;;;;1.63;0.70;;;6.30;99.90;;;;;;2071227;28;20097;-71
2021/11/27 02:39:50;;;;;;;0.88;0.88;;;6.30;99.90;;;;;;2070977;28;20040;-71
2021/11/27 02:40:51;;;;;;;0.60;0.60;;;6.30;99.90;;;;;;2071509;28;20022;-71
2021/11/27 02:41:53;;;;;;;0.70;0.70;;;6.30;99.90;;;;;;2077772;28;20032;-71
2021/11/27 02:42:54;;;;;;;0.80;0.70;;;6.30;99.90;;;;;;2079676;28;20021;-71
2021/11/27 02:43:54;;;;;;;1.67;0.80;;;6.30;99.90;;;;;;2079465;28;20021;-71
2021/11/27 02:45:06;;;;;;;0.73;0.73;;;6.30;99.90;;;;;;2079482;28;20043;-71
2021/11/27 02:46:07;;;;;;;0.93;0.65;;;6.30;99.90;;;;;;2076616;28;20018;-71
2021/11/27 02:47:08;;;;;;;0.98;0.93;;;6.30;99.90;;;;;;2078277;28;20033;-71
2021/11/27 02:48:09;;;;;;;0.90;0.90;;;6.30;99.90;;;;;;2079098;28;20018;-71
2021/11/27 02:49:10;;;;;;;0.70;0.70;;;6.30;99.90;;;;;;2079534;28;20028;-71
2021/11/27 02:50:13;;;;;;;1.95;1.02;;;6.30;99.90;;;;;;2078389;28;20119;-71
2021/11/27 02:51:14;;;;;;;0.88;0.88;;;6.30;99.90;;;;;;2078996;28;20014;-71
2021/11/27 02:52:15;;;;;;;0.73;0.70;;;6.30;99.90;;;;;;2079294;28;20030;-71
2021/11/27 02:53:16;;;;;;;0.90;0.90;;;6.30;99.90;;;;;;2078756;28;20017;-71
2021/11/27 02:54:17;;;;;;;1.00;0.90;;;6.30;99.90;;;;;;2077271;28;20022;-71
2021/11/27 02:55:17;;;;;;;0.55;0.55;;;6.40;99.90;;;;;;2079617;28;20620;-71
2021/11/27 02:56:18;;;;;;;0.80;0.80;;;6.40;99.90;;;;;;2078978;28;20030;-71
2021/11/27 02:57:19;;;;;;;0.68;0.68;;;6.30;99.90;;;;;;2079517;28;20029;-71
2021/11/27 02:58:19;;;;;;;0.70;0.70;;;6.40;99.90;;;;;;2079487;28;20021;-71
2021/11/27 02:59:25;;;;;;;0.75;0.75;;;6.40;99.90;;;;;;2079690;28;20029;-71
2021/11/27 03:00:27;;;;;;;0.70;0.70;;;6.40;99.90;;;;;;2079301;28;20498;-71
2021/11/27 03:01:27;;;;;;;0.80;0.73;;;6.40;99.90;;;;;;2079140;28;20039;-71
2021/11/27 03:02:28;;;;;;;1.67;0.80;;;6.40;99.90;;;;;;2077490;28;20076;-71
2021/11/27 03:03:28;;;;;;;0.90;0.90;;;6.40;99.90;;;;;;2079022;28;20136;-71
2021/11/27 03:04:33;;;;;;;0.98;0.98;;;6.40;99.90;;;;;;2079537;28;20481;-71
2021/11/27 03:05:33;;;;;;;0.88;0.88;;;6.40;99.90;;;;;;2076868;28;20021;-71
2021/11/27 03:06:35;;;;;;;0.80;0.80;;;6.40;99.90;;;;;;2071063;28;20029;-71
2021/11/27 03:07:36;;;;;;;1.33;1.05;;;6.50;99.90;;;;;;2070902;28;20030;-71
2021/11/27 03:08:38;;;;;;;1.00;1.00;;;6.40;99.90;;;;;;2070891;28;20022;-73
2021/11/27 03:09:38;;;;;;;1.05;0.90;;;6.40;99.90;;;;;;2072241;28;20501;-71
2021/11/27 03:10:39;;;;;;;0.70;0.70;;;6.40;99.90;;;;;;2072112;28;20354;-71
2021/11/27 03:11:40;;;;;;;1.30;0.98;;;6.40;99.90;;;;;;2073007;28;20030;-71
2021/11/27 03:12:41;;;;;;;1.00;1.00;;;6.40;99.90;;;;;;2072612;28;20101;-71
2021/11/27 03:13:42;;;;;;;0.95;0.95;;;6.40;99.90;;;;;;2073171;28;20072;-71
2021/11/27 03:14:42;;;;;;;1.02;1.02;;;6.40;99.90;;;;;;2073304;28;20014;-71
2021/11/27 03:15:43;;;;;;;1.17;1.17;;;6.40;99.90;;;;;;2078943;28;20048;-71
2021/11/27 03:16:46;;;;;;;1.02;0.93;;;6.40;99.90;;;;;;2080178;28;20028;-71
2021/11/27 03:17:47;;;;;;;0.90;0.90;;;6.40;99.90;;;;;;2081210;28;20109;-71
2021/11/27 03:18:48;;;;;;;1.20;1.10;;;6.40;99.90;;;;;;2080706;28;20040;-71
2021/11/27 03:19:48;;;;;;;1.20;1.20;;;6.40;99.90;;;;;;2081081;28;20026;-71
2021/11/27 03:20:55;;;;;;;1.00;1.00;;;6.40;99.90;;;;;;2080606;28;20216;-71
2021/11/27 03:21:57;;;;;;;1.20;1.10;;;6.40;99.90;;;;;;2081017;28;20049;-71
2021/11/27 03:22:57;;;;;;;1.00;1.00;;;6.40;99.90;;;;;;2080715;28;20025;-71
2021/11/27 03:23:58;;;;;;;1.55;1.10;;;6.40;99.90;;;;;;2080804;28;20033;-71
2021/11/27 03:24:59;;;;;;;1.70;0.85;;;6.40;99.90;;;;;;2080794;28;20100;-71
2021/11/27 03:26:00;;;;;;;1.10;1.00;;;6.40;99.90;;;;;;2080643;28;20818;-71
2021/11/27 03:27:01;;;;;;;1.30;1.20;;;6.40;99.90;;;;;;2074694;28;20026;-71
2021/11/27 03:28:01;;;;;;;1.13;1.02;;;6.50;99.90;;;;;;2080464;28;20022;-71
2021/11/27 03:29:03;;;;;;;0.88;0.88;;;6.50;99.90;;;;;;2071833;28;20029;-71
2021/11/27 03:30:07;;;;;;;0.90;0.90;;;6.50;99.90;;;;;;2080059;28;20570;-71
2021/11/27 03:31:07;;;;;;;0.90;0.90;;;6.50;99.90;;;;;;2080639;28;20376;-71
2021/11/27 03:32:14;;;;;;;0.95;0.95;;;6.50;99.90;;;;;;2080807;28;20022;-71
2021/11/27 03:33:15;;;;;;;1.10;1.00;;;6.50;99.90;;;;;;2076676;28;20025;-71
2021/11/27 03:34:15;;;;;;;1.08;1.08;;;6.50;99.90;;;;;;2072460;28;20030;-71
2021/11/27 03:35:16;;;;;;;0.93;0.93;;;6.50;99.90;;;;;;2079848;28;20110;-71
2021/11/27 03:36:17;;;;;;;1.10;1.10;;;6.50;99.90;;;;;;2079481;28;20033;-71
2021/11/27 03:37:19;;;;;;;1.08;1.00;;;6.50;99.90;;;;;;2072667;28;20030;-71
2021/11/27 03:38:20;;;;;;;1.38;1.27;;;6.40;99.90;;;;;;2072249;28;20041;-71
2021/11/27 03:39:20;;;;;;;1.30;1.20;;;6.40;99.90;;;;;;2071755;28;20073;-71
2021/11/27 03:40:24;;;;;;;1.08;1.08;;;6.40;99.90;;;;;;2080286;28;20412;-71
2021/11/27 03:41:24;;;;;;;1.35;1.25;;;6.40;99.90;;;;;;2072697;28;20101;-71
2021/11/27 03:42:25;;;;;;;1.10;1.10;;;6.40;99.90;;;;;;2072824;28;20021;-71
2021/11/27 03:43:26;;;;;;;0.98;0.90;;;6.40;99.90;;;;;;2074249;28;20033;-71
2021/11/27 03:44:27;;;;;;;1.40;1.30;;;6.40;99.90;;;;;;2080117;28;20013;-71
2021/11/27 03:45:27;;;;;;;1.95;1.40;;;6.40;99.90;;;;;;2080118;28;20385;-71
2021/11/27 03:46:28;;;;;;;1.45;1.35;;;6.50;99.90;;;;;;2079550;28;20021;-71
2021/11/27 03:47:29;;;;;;;1.17;1.17;;;6.50;99.90;;;;;;2080323;28;20119;-71
2021/11/27 03:48:33;;;;;;;1.10;1.10;;;6.50;99.90;;;;;;2080545;28;20018;-71
2021/11/27 03:49:34;;;;;;;1.00;1.00;;;6.50;99.90;;;;;;2080789;28;20025;-71
2021/11/27 03:50:39;;;;;;;1.50;1.40;;;6.50;99.90;;;;;;2080670;28;20037;-71
2021/11/27 03:51:39;;;;;;;1.10;1.10;;;6.50;99.90;;;;;;2080920;28;20036;-71
2021/11/27 03:52:40;;;;;;;1.17;1.17;;;6.50;99.90;;;;;;2080327;28;20454;-71
2021/11/27 03:53:43;;;;;;;1.42;1.33;;;6.50;99.90;;;;;;2080757;28;20029;-71
2021/11/27 03:54:44;;;;;;;1.75;1.65;;;6.50;99.90;;;;;;2080673;28;20042;-71
2021/11/27 03:55:46;;;;;;;1.00;1.00;;;6.50;99.90;;;;;;2079518;28;20055;-71
2021/11/27 03:56:47;;;;;;;1.35;1.25;;;6.50;99.90;;;;;;2079821;28;20098;-71
2021/11/27 03:57:48;;;;;;;1.10;1.10;;;6.60;99.90;;;;;;2079936;28;20026;-71
2021/11/27 03:58:49;;;;;;;1.55;1.40;;;6.50;99.90;;;;;;2079929;28;20084;-71
2021/11/27 03:59:50;;;;;;;1.20;1.10;;;6.60;99.90;;;;;;2071662;28;20025;-71
2021/11/27 04:00:52;;;;;;;1.60;1.33;;;6.60;99.90;;;;;;2072059;28;20037;-71
2021/11/27 04:01:53;;;;;;;1.30;1.30;;;6.60;99.90;;;;;;2072463;28;20378;-71
2021/11/27 04:02:55;;;;;;;1.60;1.50;;;6.60;99.90;;;;;;2072248;28;20026;-71
2021/11/27 04:03:57;;;;;;;2.67;1.73;;;6.60;99.90;;;;;;2078237;28;20637;-71
2021/11/27 04:04:58;;;;;;;3.03;1.77;;;6.60;99.90;;;;;;2072446;28;20026;-71
2021/11/27 04:06:00;;;;;;;1.70;1.60;;;6.60;99.90;;;;;;2072256;28;20022;-71
2021/11/27 04:07:01;;;;;;;1.73;1.63;;;6.60;99.90;;;;;;2080255;28;20029;-71
2021/11/27 04:08:02;;;;;;;1.60;1.50;;;6.60;99.90;;;;;;2080533;28;20082;-71
2021/11/27 04:09:07;;;;;;;2.88;1.70;;;6.60;99.90;;;;;;2079909;28;20033;-71
2021/11/27 04:10:08;;;;;;;1.73;1.63;;;6.60;99.90;;;;;;2080102;28;20055;-71
2021/11/27 04:11:08;;;;;;;1.77;1.67;;;6.60;99.90;;;;;;2080432;28;20079;-71
2021/11/27 04:12:09;;;;;;;2.08;1.92;;;6.50;99.90;;;;;;2080183;28;20033;-71
2021/11/27 04:13:10;;;;;;;2.10;2.00;;;6.50;99.90;;;;;;2080075;28;20029;-71
2021/11/27 04:14:11;;;;;;;4.47;2.17;;;6.50;99.90;;;;;;2080707;28;20029;-71
2021/11/27 04:15:12;;;;;;;2.55;2.35;;;6.50;99.90;;;;;;2080558;28;20036;-71
2021/11/27 04:16:12;;;;;;;2.20;2.10;;;6.50;99.90;;;;;;2079933;28;20033;-71
2021/11/27 04:17:13;;;;;;;2.30;2.20;;;6.50;99.90;;;;;;2080642;28;20389;-71
2021/11/27 04:18:14;;;;;;;2.28;2.08;;;6.60;99.90;;;;;;2080578;28;20025;-71
2021/11/27 04:19:15;;;;;;;2.35;2.25;;;6.60;99.90;;;;;;2079517;28;20485;-71
2021/11/27 04:20:16;;;;;;;2.92;2.72;;;6.60;99.90;;;;;;2079587;28;20967;-71
2021/11/27 04:21:20;;;;;;;2.78;2.60;;;6.60;99.90;;;;;;2080402;28;20079;-71
2021/11/27 04:22:20;;;;;;;3.03;2.33;;;6.60;99.90;;;;;;2073210;28;20022;-71
2021/11/27 04:23:22;;;;;;;3.05;2.80;;;6.50;99.90;;;;;;2077034;28;20071;-71
2021/11/27 04:24:22;;;;;;;2.80;2.70;;;6.60;99.90;;;;;;2080771;28;20028;-70
2021/11/27 04:25:23;;;;;;;3.35;3.15;;;6.60;99.90;;;;;;2080395;28;20029;-70
2021/11/27 04:26:23;;;;;;;2.95;2.70;;;6.60;99.90;;;;;;2079482;28;20028;-71
2021/11/27 04:27:24;;;;;;;3.80;3.50;;;6.60;99.90;;;;;;2075374;28;20385;-70
2021/11/27 04:28:25;;;;;;;4.03;3.72;;;6.60;99.90;;;;;;2079652;28;20489;-71
2021/11/27 04:29:25;;;;;;;3.67;3.47;;;6.50;99.90;;;;;;2079413;28;20018;-70
2021/11/27 04:30:29;;;;;;;4.28;3.97;;;6.60;99.90;;;;;;2080454;28;20485;-71
2021/11/27 04:31:29;;;;;;;4.15;3.72;;;6.60;99.90;;;;;;2079967;28;20026;-71
2021/11/27 04:32:30;;;;;;;4.72;4.32;;;6.50;99.90;;;;;;2080766;28;20053;-71
2021/11/27 04:33:31;;;;;;;7.05;4.55;;;6.50;99.90;;;;;;2080256;28;20028;-71
2021/11/27 04:34:31;;;;;;;5.25;4.85;;;6.50;99.90;;;;;;2080475;28;20018;-71
2021/11/27 04:35:33;;;;;;;6.00;5.50;;;6.50;99.90;;;;;;2080095;28;20026;-71
2021/11/27 04:36:34;;;;;;;5.22;4.82;;;6.50;99.90;;;;;;2079959;28;20021;-70
2021/11/27 04:37:34;;;;;;;6.00;5.60;;;6.50;99.90;;;;;;2080083;28;20025;-71
2021/11/27 04:38:35;;;;;;;7.25;6.65;;;6.50;99.90;;;;;;2071864;28;20057;-71
2021/11/27 04:39:38;;;;;;;7.18;6.25;;;6.50;99.90;;;;;;2071510;28;20475;-71
2021/11/27 04:40:39;;;;;;;5.50;5.10;;;6.40;99.90;;;;;;2072258;28;20370;-71
2021/11/27 04:41:40;;;;;;;5.50;5.10;;;6.40;99.90;;;;;;2071704;28;20044;-71
2021/11/27 04:42:41;;;;;;;5.15;4.75;;;6.40;99.90;;;;;;2072141;28;20379;-71
2021/11/27 04:43:41;;;;;;;5.63;5.13;;;6.40;99.90;;;;;;2072509;28;20018;-71
2021/11/27 04:44:42;;;;;;;5.55;5.15;;;6.30;99.90;;;;;;2072020;28;20036;-71
2021/11/27 04:45:43;;;;;;;6.97;6.05;;;6.30;99.90;;;;;;2075162;28;20386;-71
2021/11/27 04:46:44;;;;;;;7.70;6.93;;;6.30;99.90;;;;;;2079158;28;20493;-71
2021/11/27 04:47:44;;;;;;;7.50;6.70;;;6.30;99.90;;;;;;2079176;28;20099;-70
2021/11/27 04:48:45;;;;;;;9.25;7.97;;;6.20;99.90;;;;;;2080276;28;20105;-71
2021/11/27 04:49:46;;;;;;;8.25;7.40;;;6.20;99.90;;;;;;2074464;28;20475;-71
2021/11/27 04:50:48;;;;;;;8.60;7.65;;;6.20;99.90;;;;;;2076412;28;20052;-71
2021/11/27 04:51:49;;;;;;;9.85;8.80;;;6.10;99.90;;;;;;2080175;28;20140;-71
2021/11/27 04:52:50;;;;;;;8.73;7.82;;;6.10;99.90;;;;;;2078124;28;20500;-71
2021/11/27 04:53:50;;;;;;;10.77;9.27;;;6.10;99.90;;;;;;2078258;28;20030;-71
2021/11/27 04:54:52;;;;;;;9.88;8.95;;;6.10;99.90;;;;;;2080077;28;20036;-71
2021/11/27 04:55:53;;;;;;;10.23;9.23;;;6.10;99.90;;;;;;2079940;28;20034;-71
2021/11/27 04:56:54;;;;;;;9.75;8.75;;;6.00;99.90;;;;;;2080203;28;20030;-70
2021/11/27 04:57:54;;;;;;;8.18;7.38;;;6.00;99.90;;;;;;2080137;28;20104;-71
2021/11/27 04:58:55;;;;;;;7.45;6.45;;;6.00;99.90;;;;;;2080209;28;20060;-71
2021/11/27 04:59:56;;;;;;;7.43;6.63;;;6.00;99.90;;;;;;2080349;28;20397;-71
2021/11/27 05:00:59;;;;;;;8.73;7.53;;;6.00;99.90;;;;;;2080003;28;20351;-71
2021/11/27 05:02:01;;;;;;;8.10;7.32;;;6.00;99.90;;;;;;2080112;28;20355;-71
2021/11/27 05:03:03;;;;;;;9.90;7.90;;;6.00;99.90;;;;;;2071785;28;20017;-71
2021/11/27 05:04:04;;;;;;;8.57;7.22;;;6.00;99.90;;;;;;2072035;28;20068;-71
2021/11/27 05:05:05;;;;;;;9.43;8.25;;;6.00;99.90;;;;;;2071942;28;20030;-71
2021/11/27 05:06:05;;;;;;;9.07;8.18;;;6.00;99.90;;;;;;2075933;28;20022;-71
2021/11/27 05:07:06;;;;;;;8.10;7.22;;;5.90;99.90;;;;;;2078872;28;20056;-70
2021/11/27 05:08:08;;;;;;;8.43;7.53;;;5.90;99.90;;;;;;2071492;28;20030;-70
2021/11/27 05:09:09;;;;;;;9.20;8.23;;;5.90;99.90;;;;;;2071120;28;20038;-71
2021/11/27 05:10:11;;;;;;;9.95;8.85;;;5.80;99.90;;;;;;2071725;28;20030;-71
2021/11/27 05:11:11;;;;;;;9.50;8.43;;;5.80;99.90;;;;;;2071922;28;20022;-71
2021/11/27 05:12:12;;;;;;;8.43;7.53;;;5.80;99.90;;;;;;2075135;28;20110;-71
2021/11/27 05:13:13;;;;;;;7.38;6.68;;;5.80;99.90;;;;;;2079547;28;20075;-70
2021/11/27 05:14:14;;;;;;;8.63;7.68;;;5.80;99.90;;;;;;2079873;28;20052;-70
2021/11/27 05:15:15;;;;;;;8.73;7.90;;;5.80;99.90;;;;;;2079316;28;20564;-70
2021/11/27 05:16:15;;;;;;;8.15;7.35;;;5.90;99.90;;;;;;2079595;28;20466;-71
2021/11/27 05:17:16;;;;;;;8.18;7.25;;;5.90;99.90;;;;;;2079470;28;20025;-70
2021/11/27 05:18:16;;;;;;;9.00;7.95;;;5.90;99.90;;;;;;2080323;28;20053;-71
2021/11/27 05:19:17;;;;;;;7.78;6.97;;;5.90;99.90;;;;;;2079803;28;20087;-71
2021/11/27 05:20:18;;;;;;;8.73;7.22;;;5.90;99.90;;;;;;2079385;28;20526;-71
2021/11/27 05:21:19;;;;;;;7.97;7.18;;;5.90;99.90;;;;;;2080050;28;20400;-71
2021/11/27 05:22:20;;;;;;;7.80;6.75;;;5.90;99.90;;;;;;2073496;28;20431;-71
2021/11/27 05:23:20;;;;;;;8.75;6.90;;;5.80;99.90;;;;;;2071786;28;20033;-71
2021/11/27 05:24:21;;;;;;;7.50;6.75;;;5.80;99.90;;;;;;2072003;28;20082;-70
2021/11/27 05:25:22;;;;;;;8.50;7.55;;;5.80;99.90;;;;;;2071800;28;20022;-70